createdAt,value
2018-04-12T00:00:33.839Z,47.20
2018-04-12T00:03:08.570Z,47.90
2018-04-12T00:05:42.517Z,47.20
2018-04-12T00:08:16.531Z,47.40
2018-04-12T00:10:50.327Z,47.30
2018-04-12T00:13:24.328Z,47.20
2018-04-12T00:15:58.373Z,47.40
2018-04-12T00:18:33.071Z,47.30
2018-04-12T00:21:07.652Z,48.60
2018-04-12T00:23:42.380Z,47.30
2018-04-12T00:26:16.449Z,47.40
2018-04-12T00:28:50.927Z,47.20
2018-04-12T00:31:24.976Z,47.10
2018-04-12T00:33:59.673Z,46.90
2018-04-12T00:36:33.520Z,46.80
2018-04-12T00:39:07.735Z,47.10
2018-04-12T00:41:42.654Z,46.90
2018-04-12T00:44:17.479Z,46.80
2018-04-12T00:46:51.612Z,46.80
2018-04-12T00:49:25.561Z,47.20
2018-04-12T00:52:00.862Z,46.90
2018-04-12T00:54:35.486Z,46.80
2018-04-12T00:57:09.483Z,46.60
2018-04-12T00:59:43.301Z,46.70
2018-04-12T01:02:18.796Z,46.50
2018-04-12T01:04:53.461Z,46.50
2018-04-12T01:07:28.082Z,46.80
2018-04-12T01:10:01.974Z,46.50
2018-04-12T01:12:35.821Z,46.40
2018-04-12T01:15:10.288Z,46.70
2018-04-12T01:17:44.764Z,46.50
2018-04-12T01:20:19.183Z,46.50
2018-04-12T01:22:53.881Z,46.60
2018-04-12T01:25:28.065Z,47.00
2018-04-12T01:28:02.623Z,46.60
2018-04-12T01:30:37.955Z,46.20
2018-04-12T01:33:17.000Z,46.20
2018-04-12T01:35:50.900Z,46.50
2018-04-12T01:38:25.448Z,45.40
2018-04-12T01:41:00.830Z,46.40
2018-04-12T01:43:35.528Z,46.20
2018-04-12T01:46:09.423Z,46.40
2018-04-12T01:48:44.338Z,46.50
2018-04-12T01:51:18.917Z,46.50
2018-04-12T01:53:53.802Z,46.70
2018-04-12T01:56:29.095Z,46.70
2018-04-12T01:59:03.159Z,46.60
2018-04-12T02:01:37.989Z,46.50
2018-04-12T02:04:11.837Z,46.40
2018-04-12T02:06:46.334Z,46.20
2018-04-12T02:09:20.963Z,46.30
2018-04-12T02:11:54.983Z,46.00
2018-04-12T02:14:29.063Z,46.40
2018-04-12T02:17:03.843Z,46.50
2018-04-12T02:19:38.357Z,46.20
2018-04-12T02:22:12.521Z,46.80
2018-04-12T02:24:46.369Z,46.10
2018-04-12T02:27:20.983Z,46.00
2018-04-12T02:29:55.587Z,46.50
2018-04-12T02:32:30.228Z,46.00
2018-04-12T02:35:04.948Z,46.20
2018-04-12T02:37:39.888Z,46.20
2018-04-12T02:40:14.589Z,46.40
2018-04-12T02:42:49.168Z,46.10
2018-04-12T02:45:23.419Z,46.30
2018-04-12T02:47:57.980Z,46.10
2018-04-12T02:50:33.281Z,46.30
2018-04-12T02:53:07.225Z,46.20
2018-04-12T02:55:41.695Z,46.40
2018-04-12T02:58:16.388Z,46.50
2018-04-12T03:00:51.751Z,46.40
2018-04-12T03:03:27.418Z,46.30
2018-04-12T03:06:01.564Z,46.30
2018-04-12T03:08:36.427Z,46.30
2018-04-12T03:11:11.045Z,47.80
2018-04-12T03:13:45.591Z,46.20
2018-04-12T03:16:20.620Z,46.60
2018-04-12T03:18:56.119Z,46.60
2018-04-12T03:21:30.715Z,46.50
2018-04-12T03:24:04.979Z,46.30
2018-04-12T03:26:39.913Z,46.20
2018-04-12T03:29:14.441Z,46.60
2018-04-12T03:31:49.106Z,46.70
2018-04-12T03:34:23.821Z,46.50
2018-04-12T03:36:58.584Z,46.60
2018-04-12T03:39:34.033Z,46.70
2018-04-12T03:42:08.011Z,46.60
2018-04-12T03:44:42.727Z,46.70
2018-04-12T03:47:17.542Z,46.80
2018-04-12T03:49:52.438Z,46.70
2018-04-12T03:52:26.453Z,46.70
2018-04-12T03:55:01.283Z,46.50
2018-04-12T03:57:35.781Z,47.20
2018-04-12T04:00:11.295Z,46.80
2018-04-12T04:02:45.692Z,47.10
2018-04-12T04:05:19.690Z,46.80
2018-04-12T04:07:54.372Z,46.90
2018-04-12T04:10:28.867Z,47.00
2018-04-12T04:13:03.751Z,47.00
2018-04-12T04:15:52.245Z,47.00
2018-04-12T04:18:38.844Z,47.30
2018-04-12T04:21:13.775Z,47.40
2018-04-12T04:23:49.103Z,47.30
2018-04-12T04:26:24.034Z,47.40
2018-04-12T04:28:58.684Z,47.10
2018-04-12T04:31:34.065Z,47.40
2018-04-12T04:34:09.214Z,47.40
2018-04-12T04:36:43.211Z,47.30
2018-04-12T04:39:17.792Z,47.60
2018-04-12T04:41:52.256Z,47.50
2018-04-12T04:44:26.189Z,47.20
2018-04-12T04:47:01.401Z,47.30
2018-04-12T04:49:36.084Z,47.20
2018-04-12T04:52:10.929Z,47.50
2018-04-12T04:54:45.443Z,47.40
2018-04-12T04:57:20.008Z,47.40
2018-04-12T04:59:54.605Z,47.10
2018-04-12T05:02:29.358Z,47.50
2018-04-12T05:05:04.750Z,46.50
2018-04-12T05:07:38.864Z,47.40
2018-04-12T05:10:14.129Z,47.90
2018-04-12T05:12:48.810Z,47.70
2018-04-12T05:15:23.574Z,47.70
2018-04-12T05:17:59.137Z,47.60
2018-04-12T05:20:33.984Z,47.60
2018-04-12T05:23:09.566Z,47.80
2018-04-12T05:25:44.114Z,47.80
2018-04-12T05:28:18.748Z,47.70
2018-04-12T05:30:53.374Z,47.70
2018-04-12T05:33:27.924Z,47.60
2018-04-12T05:36:02.071Z,47.60
2018-04-12T05:38:36.085Z,47.70
2018-04-12T05:41:10.782Z,47.70
2018-04-12T05:43:46.463Z,47.80
2018-04-12T05:46:21.940Z,47.60
2018-04-12T05:48:56.491Z,47.70
2018-04-12T05:51:31.190Z,47.60
2018-04-12T05:54:05.670Z,47.60
2018-04-12T05:56:40.217Z,47.50
2018-04-12T05:59:14.314Z,48.90
2018-04-12T06:01:48.212Z,47.50
2018-04-12T06:04:22.930Z,47.50
2018-04-12T06:06:56.857Z,47.90
2018-04-12T06:09:32.237Z,47.60
2018-04-12T06:12:07.102Z,47.60
2018-04-12T06:14:42.384Z,47.90
2018-04-12T06:17:19.065Z,47.80
2018-04-12T06:19:52.979Z,47.90
2018-04-12T06:22:28.798Z,47.50
2018-04-12T06:25:02.743Z,47.50
2018-04-12T06:27:37.472Z,47.60
2018-04-12T06:30:16.193Z,47.50
2018-04-12T06:32:51.783Z,47.50
2018-04-12T06:35:25.751Z,47.30
2018-04-12T06:38:00.343Z,47.20
2018-04-12T06:40:34.208Z,47.20
2018-04-12T06:43:08.415Z,47.40
2018-04-12T06:45:43.086Z,47.20
2018-04-12T06:48:16.989Z,47.40
2018-04-12T06:50:51.659Z,47.30
2018-04-12T06:53:25.488Z,47.30
2018-04-12T06:55:59.291Z,47.20
2018-04-12T06:58:33.253Z,47.70
2018-04-12T07:01:07.043Z,46.90
2018-04-12T07:03:41.793Z,47.00
2018-04-12T07:06:15.700Z,47.30
2018-04-12T07:08:50.312Z,47.20
2018-04-12T07:11:25.593Z,46.90
2018-04-12T07:13:59.635Z,46.60
2018-04-12T07:16:35.510Z,46.50
2018-04-12T07:19:11.163Z,46.60
2018-04-12T07:21:44.988Z,46.30
2018-04-12T07:24:18.815Z,46.10
2018-04-12T07:26:53.813Z,46.60
2018-04-12T07:29:28.741Z,46.50
2018-04-12T07:32:03.506Z,46.80
2018-04-12T07:34:40.588Z,46.80
2018-04-12T07:37:15.536Z,46.50
2018-04-12T07:39:50.320Z,46.70
2018-04-12T07:42:25.032Z,46.60
2018-04-12T07:44:58.886Z,46.60
2018-04-12T07:47:33.138Z,46.60
2018-04-12T07:50:07.129Z,46.80
2018-04-12T07:52:41.154Z,46.80
2018-04-12T07:55:15.084Z,47.10
2018-04-12T07:57:49.344Z,47.10
2018-04-12T08:00:23.180Z,47.00
2018-04-12T08:02:57.118Z,47.40
2018-04-12T08:05:31.201Z,47.30
2018-04-12T08:08:05.137Z,47.10
2018-04-12T08:10:39.804Z,47.20
2018-04-12T08:13:14.468Z,47.10
2018-04-12T08:15:48.339Z,47.10
2018-04-12T08:18:22.430Z,47.10
2018-04-12T08:20:56.295Z,46.90
2018-04-12T08:23:30.960Z,47.10
2018-04-12T08:26:04.821Z,47.00
2018-04-12T08:28:39.469Z,47.10
2018-04-12T08:31:14.448Z,47.20
2018-04-12T08:33:48.431Z,47.40
2018-04-12T08:36:22.550Z,47.30
2018-04-12T08:38:56.661Z,47.10
2018-04-12T08:41:30.576Z,47.20
2018-04-12T08:44:04.576Z,47.10
2018-04-12T08:46:39.103Z,47.30
2018-04-12T08:49:13.934Z,47.40
2018-04-12T08:51:47.799Z,47.20
2018-04-12T08:54:23.283Z,47.30
2018-04-12T08:56:58.179Z,47.50
2018-04-12T08:59:32.949Z,47.00
2018-04-12T09:02:06.824Z,47.00
2018-04-12T09:04:40.814Z,47.20
2018-04-12T09:07:15.253Z,47.10
2018-04-12T09:09:49.317Z,47.10
2018-04-12T09:12:23.258Z,47.20
2018-04-12T09:14:57.131Z,47.10
2018-04-12T09:17:30.974Z,47.20
2018-04-12T09:20:05.843Z,47.00
2018-04-12T09:22:39.946Z,46.80
2018-04-12T09:25:14.080Z,47.00
2018-04-12T09:27:48.080Z,46.80
2018-04-12T09:30:23.247Z,46.80
2018-04-12T09:32:57.268Z,46.70
2018-04-12T09:35:31.026Z,46.80
2018-04-12T09:38:06.486Z,46.90
2018-04-12T09:40:40.806Z,46.90
2018-04-12T09:43:14.802Z,46.90
2018-04-12T09:45:49.734Z,47.10
2018-04-12T09:48:24.612Z,46.90
2018-04-12T09:50:58.550Z,46.80
2018-04-12T09:53:33.284Z,47.00
2018-04-12T09:56:07.409Z,46.80
2018-04-12T09:58:41.273Z,46.90
2018-04-12T10:01:15.102Z,46.80
2018-04-12T10:03:50.727Z,46.50
2018-04-12T10:06:25.217Z,46.40
2018-04-12T10:09:16.065Z,46.70
2018-04-12T10:11:49.924Z,47.40
2018-04-12T10:14:25.484Z,46.50
2018-04-12T10:16:59.356Z,46.50
2018-04-12T10:19:33.188Z,46.50
2018-04-12T10:22:08.292Z,46.50
2018-04-12T10:24:42.781Z,46.40
2018-04-12T10:27:16.874Z,46.50
2018-04-12T10:29:50.760Z,46.30
2018-04-12T10:32:24.647Z,46.30
2018-04-12T10:34:58.755Z,46.30
2018-04-12T10:37:32.777Z,45.70
2018-04-12T10:40:07.432Z,46.50
2018-04-12T10:42:42.070Z,46.80
2018-04-12T10:45:16.511Z,46.70
2018-04-12T10:47:51.076Z,46.40
2018-04-12T10:50:24.989Z,46.40
2018-04-12T10:52:59.535Z,46.60
2018-04-12T10:55:33.634Z,46.50
2018-04-12T10:58:08.347Z,46.60
2018-04-12T11:00:42.445Z,46.60
2018-04-12T11:03:16.825Z,46.90
2018-04-12T11:05:50.808Z,46.70
2018-04-12T11:08:25.204Z,46.80
2018-04-12T11:11:00.685Z,46.90
2018-04-12T11:13:34.701Z,46.80
2018-04-12T11:16:09.300Z,46.50
2018-04-12T11:18:44.614Z,46.60
2018-04-12T11:21:18.676Z,46.60
2018-04-12T11:23:53.978Z,46.40
2018-04-12T11:26:28.538Z,46.30
2018-04-12T11:29:03.118Z,46.30
2018-04-12T11:31:37.080Z,46.40
2018-04-12T11:34:11.696Z,46.40
2018-04-12T11:36:46.344Z,46.20
2018-04-12T11:39:20.226Z,46.30
2018-04-12T11:41:54.756Z,46.30
2018-04-12T11:44:29.785Z,46.20
2018-04-12T11:47:03.752Z,46.00
2018-04-12T11:49:38.416Z,46.10
2018-04-12T11:52:12.316Z,46.00
2018-04-12T11:54:46.211Z,46.10
2018-04-12T11:57:20.143Z,45.90
2018-04-12T11:59:54.641Z,45.60
2018-04-12T12:02:29.155Z,45.70
2018-04-12T12:05:03.756Z,45.60
2018-04-12T12:07:39.205Z,45.50
2018-04-12T12:10:13.981Z,45.50
2018-04-12T12:12:47.844Z,45.40
2018-04-12T12:15:22.416Z,45.30
2018-04-12T12:17:56.441Z,45.20
2018-04-12T12:20:30.289Z,45.30
2018-04-12T12:23:05.171Z,45.20
2018-04-12T12:25:39.118Z,45.20
2018-04-12T12:28:14.102Z,45.10
2018-04-12T12:30:48.016Z,45.10
2018-04-12T12:33:22.032Z,44.90
2018-04-12T12:35:56.566Z,45.20
2018-04-12T12:38:31.104Z,44.60
2018-04-12T12:41:05.089Z,44.40
2018-04-12T12:43:42.584Z,44.30
2018-04-12T12:46:17.159Z,43.90
2018-04-12T12:48:50.999Z,43.90
2018-04-12T12:51:25.617Z,44.00
2018-04-12T12:53:59.631Z,43.90
2018-04-12T12:56:33.598Z,44.20
2018-04-12T12:59:07.557Z,42.70
2018-04-12T13:01:41.459Z,42.00
2018-04-12T13:04:15.098Z,42.00
2018-04-12T13:06:49.032Z,41.10
2018-04-12T13:09:23.540Z,41.00
2018-04-12T13:11:57.708Z,41.70
2018-04-12T13:14:32.339Z,42.90
2018-04-12T13:17:06.449Z,42.90
2018-04-12T13:19:40.531Z,44.20
2018-04-12T13:22:14.677Z,42.90
2018-04-12T13:24:52.641Z,42.70
2018-04-12T13:27:26.686Z,42.80
2018-04-12T13:30:00.404Z,43.20
2018-04-12T13:32:34.367Z,43.30
2018-04-12T13:37:56.854Z,43.30
2018-04-12T13:40:31.371Z,43.40
2018-04-12T13:43:05.315Z,43.70
2018-04-12T13:45:41.321Z,43.70
2018-04-12T13:48:15.779Z,42.70
2018-04-12T13:50:49.605Z,42.60
2018-04-12T13:53:24.096Z,43.00
2018-04-12T13:55:58.723Z,44.10
2018-04-12T13:58:33.464Z,42.80
2018-04-12T14:01:08.077Z,42.40
2018-04-12T14:03:42.202Z,42.40
2018-04-12T14:06:15.958Z,42.00
2018-04-12T14:08:50.842Z,42.50
2018-04-12T14:11:24.736Z,42.40
2018-04-12T14:13:58.649Z,42.30
2018-04-12T14:16:32.608Z,42.50
2018-04-12T14:19:06.528Z,42.90
2018-04-12T14:21:40.379Z,42.90
2018-04-12T14:24:14.355Z,42.80
2018-04-12T14:26:48.287Z,43.10
2018-04-12T14:29:22.890Z,42.90
2018-04-12T14:31:56.923Z,42.90
2018-04-12T14:34:35.891Z,42.80
2018-04-12T14:37:09.759Z,42.80
2018-04-12T14:39:43.540Z,42.90
2018-04-12T14:42:17.441Z,42.80
2018-04-12T14:44:51.525Z,42.90
2018-04-12T14:47:25.412Z,43.30
2018-04-12T14:49:59.311Z,43.30
2018-04-12T14:52:33.013Z,43.30
2018-04-12T14:55:06.848Z,42.80
2018-04-12T14:57:41.172Z,42.90
2018-04-12T15:00:15.208Z,42.90
2018-04-12T15:02:49.123Z,42.40
2018-04-12T15:05:23.028Z,42.80
2018-04-12T15:09:59.608Z,43.40
2018-04-12T15:12:33.549Z,42.10
2018-04-12T15:15:07.578Z,42.40
2018-04-12T15:17:42.250Z,40.70
2018-04-12T15:20:16.807Z,40.70
2018-04-12T15:22:50.886Z,40.60
2018-04-12T15:25:26.636Z,40.30
2018-04-12T15:28:01.381Z,40.20
2018-04-12T15:30:35.431Z,40.40
2018-04-12T15:33:09.975Z,41.00
2018-04-12T15:35:44.639Z,41.20
2018-04-12T15:38:18.774Z,41.10
2018-04-12T15:40:53.580Z,42.00
2018-04-12T15:43:28.366Z,41.80
2018-04-12T15:46:02.594Z,41.70
2018-04-12T15:48:36.566Z,41.90
2018-04-12T15:51:11.155Z,42.20
2018-04-12T15:53:45.072Z,42.10
2018-04-12T15:56:18.855Z,42.30
2018-04-12T15:58:53.826Z,42.30
2018-04-12T16:01:27.710Z,42.40
2018-04-12T16:04:01.666Z,42.30
2018-04-12T16:06:35.546Z,42.40
2018-04-12T16:09:10.876Z,42.40
2018-04-12T16:11:46.175Z,42.50
2018-04-12T16:14:20.222Z,42.50
2018-04-12T16:16:54.068Z,42.40
2018-04-12T16:19:28.549Z,42.40
2018-04-12T16:22:02.589Z,41.90
2018-04-12T16:24:36.452Z,42.60
2018-04-12T16:27:10.223Z,42.70
2018-04-12T16:29:44.741Z,42.50
2018-04-12T16:32:19.358Z,42.60
2018-04-12T16:34:53.486Z,42.70
2018-04-12T16:37:27.286Z,42.80
2018-04-12T16:40:01.916Z,42.80
2018-04-12T16:42:36.478Z,42.90
2018-04-12T16:45:11.108Z,42.90
2018-04-12T16:47:45.094Z,43.00
2018-04-12T16:50:20.688Z,43.00
2018-04-12T16:52:54.563Z,42.90
2018-04-12T16:55:28.417Z,42.90
2018-04-12T16:58:03.177Z,43.00
2018-04-12T17:00:37.327Z,43.00
2018-04-12T17:03:11.144Z,42.90
2018-04-12T17:05:45.629Z,43.00
2018-04-12T17:08:19.492Z,43.10
2018-04-12T17:10:53.320Z,43.10
2018-04-12T17:13:27.237Z,43.10
2018-04-12T17:16:01.029Z,43.20
2018-04-12T17:18:35.513Z,43.30
2018-04-12T17:21:10.211Z,43.40
2018-04-12T17:23:44.195Z,43.40
2018-04-12T17:26:18.722Z,43.40
2018-04-12T17:28:52.606Z,43.50
2018-04-12T17:31:27.427Z,43.60
2018-04-12T17:34:01.179Z,43.50
2018-04-12T17:36:35.846Z,43.70
2018-04-12T17:39:10.455Z,43.80
2018-04-12T17:41:44.976Z,43.80
2018-04-12T17:44:19.009Z,43.70
2018-04-12T17:46:53.579Z,43.80
2018-04-12T17:49:28.290Z,43.90
2018-04-12T17:52:02.295Z,43.90
2018-04-12T17:54:36.315Z,44.00
2018-04-12T17:57:11.047Z,44.10
2018-04-12T17:59:44.946Z,44.10
2018-04-12T18:02:18.991Z,44.10
2018-04-12T18:04:53.028Z,43.60
2018-04-12T18:07:27.336Z,44.30
2018-04-12T18:10:01.087Z,44.40
2018-04-12T18:12:35.008Z,44.40
2018-04-12T18:15:09.404Z,44.50
2018-04-12T18:17:43.992Z,44.70
2018-04-12T18:20:17.960Z,44.70
2018-04-12T18:22:51.854Z,44.80
2018-04-12T18:25:26.369Z,44.60
2018-04-12T18:28:01.250Z,44.80
2018-04-12T18:30:35.080Z,44.80
2018-04-12T18:33:09.763Z,45.20
2018-04-12T18:35:44.259Z,45.20
2018-04-12T18:38:18.242Z,45.10
2018-04-12T18:40:52.054Z,45.30
2018-04-12T18:43:25.968Z,45.40
2018-04-12T18:45:59.858Z,45.60
2018-04-12T18:48:33.689Z,45.50
2018-04-12T18:51:07.673Z,45.60
2018-04-12T18:53:41.827Z,45.70
2018-04-12T18:56:16.619Z,45.70
2018-04-12T18:58:50.677Z,45.60
2018-04-12T19:01:26.006Z,45.70
2018-04-12T19:04:00.078Z,45.70
2018-04-12T19:06:34.146Z,45.70
2018-04-12T19:09:08.698Z,46.00
2018-04-12T19:11:43.308Z,46.00
2018-04-12T19:14:17.224Z,46.00
2018-04-12T19:16:51.189Z,46.00
2018-04-12T19:19:25.703Z,46.00
2018-04-12T19:21:59.726Z,46.00
2018-04-12T19:24:33.549Z,46.20
2018-04-12T19:27:07.463Z,46.20
2018-04-12T19:29:41.421Z,46.40
2018-04-12T19:32:15.779Z,46.50
2018-04-12T19:34:49.487Z,46.80
2018-04-12T19:37:23.669Z,46.70
2018-04-12T19:39:58.283Z,46.60
2018-04-12T19:42:32.365Z,46.80
2018-04-12T19:45:07.759Z,46.90
2018-04-12T19:47:41.776Z,46.90
2018-04-12T19:50:16.657Z,46.80
2018-04-12T19:52:50.654Z,47.00
2018-04-12T19:55:24.535Z,47.10
2018-04-12T19:57:59.041Z,47.40
2018-04-12T20:00:32.932Z,47.30
2018-04-12T20:03:07.580Z,47.40
2018-04-12T20:05:41.504Z,47.40
2018-04-12T20:08:16.021Z,47.70
2018-04-12T20:10:49.939Z,47.50
2018-04-12T20:13:23.938Z,48.10
2018-04-12T20:15:58.684Z,47.80
2018-04-12T20:18:32.761Z,47.70
2018-04-12T20:21:07.378Z,47.90
2018-04-12T20:23:41.411Z,47.80
2018-04-12T20:26:15.235Z,47.90
2018-04-12T20:28:48.956Z,47.80
2018-04-12T20:31:23.335Z,47.70
2018-04-12T20:33:57.232Z,47.90
2018-04-12T20:36:31.413Z,47.70
2018-04-12T20:39:05.104Z,47.80
2018-04-12T20:41:38.858Z,47.80
2018-04-12T20:44:13.439Z,48.00
2018-04-12T20:46:47.753Z,48.00
2018-04-12T20:49:22.486Z,48.10
2018-04-12T20:51:57.034Z,48.70
2018-04-12T20:54:31.663Z,48.30
2018-04-12T20:57:06.836Z,48.20
2018-04-12T20:59:41.292Z,48.20
2018-04-12T21:02:15.231Z,48.20
2018-04-12T21:04:49.551Z,48.40
2018-04-12T21:07:23.427Z,48.40
2018-04-12T21:09:57.265Z,48.50
2018-04-12T21:12:31.213Z,48.60
2018-04-12T21:15:05.603Z,48.70
2018-04-12T21:17:40.224Z,48.70
2018-04-12T21:20:14.806Z,48.80
2018-04-12T21:22:49.553Z,48.90
2018-04-12T21:25:23.533Z,48.90
2018-04-12T21:27:57.332Z,48.80
2018-04-12T21:30:32.106Z,48.90
2018-04-12T21:33:06.543Z,49.00
2018-04-12T21:35:40.324Z,49.00
2018-04-12T21:38:14.289Z,49.00
2018-04-12T21:40:48.053Z,49.10
2018-04-12T21:43:21.871Z,49.10
2018-04-12T21:45:56.518Z,49.30
2018-04-12T21:48:30.354Z,49.30
2018-04-12T21:51:04.331Z,49.20
2018-04-12T21:53:38.956Z,49.10
2018-04-12T21:56:12.816Z,49.00
2018-04-12T21:58:47.303Z,49.20
2018-04-12T22:01:21.307Z,49.30
2018-04-12T22:03:55.017Z,49.30
2018-04-12T22:06:28.847Z,49.40
2018-04-12T22:09:03.460Z,49.40
2018-04-12T22:11:37.474Z,49.60
2018-04-12T22:14:11.372Z,49.50
2018-04-12T22:16:45.120Z,49.60
2018-04-12T22:19:18.981Z,49.60
2018-04-12T22:21:53.289Z,49.50
2018-04-12T22:24:27.129Z,49.50
2018-04-12T22:27:01.525Z,49.60
2018-04-12T22:29:36.458Z,49.70
2018-04-12T22:32:11.017Z,51.30
2018-04-12T22:34:45.656Z,49.80
2018-04-12T22:37:19.684Z,49.60
2018-04-12T22:39:54.231Z,49.80
2018-04-12T22:42:28.130Z,49.90
2018-04-12T22:45:02.044Z,49.70
2018-04-12T22:47:35.937Z,49.90
2018-04-12T22:50:10.554Z,50.40
2018-04-12T22:52:44.553Z,50.00
2018-04-12T22:55:18.367Z,50.30
2018-04-12T22:57:52.283Z,50.10
2018-04-12T23:00:26.095Z,50.50
2018-04-12T23:03:00.611Z,50.30
2018-04-12T23:05:34.656Z,50.20
2018-04-12T23:08:09.873Z,50.10
2018-04-12T23:10:43.965Z,50.10
2018-04-12T23:13:17.870Z,50.30
2018-04-12T23:15:51.899Z,50.50
2018-04-12T23:18:26.447Z,50.30
2018-04-12T23:21:00.277Z,50.40
2018-04-12T23:23:34.460Z,50.50
2018-04-12T23:26:09.051Z,50.20
2018-04-12T23:28:43.068Z,50.50
2018-04-12T23:31:16.941Z,50.80
2018-04-12T23:33:50.814Z,50.50
2018-04-12T23:36:26.294Z,50.60
2018-04-12T23:39:00.077Z,50.60
2018-04-12T23:41:34.740Z,50.50
2018-04-12T23:44:08.659Z,49.70
2018-04-12T23:46:43.437Z,50.50
2018-04-12T23:49:18.066Z,50.50
2018-04-12T23:51:52.765Z,50.60
2018-04-12T23:54:27.813Z,50.50
2018-04-12T23:57:03.138Z,50.60
2018-04-12T23:59:37.178Z,50.60
